Banning, CA

1:27 PM PDT on August 30, 2014 (GMT -0700)
March Air Reserve Base | Change Station
CLOSE
Current Station
Airport
Location: Riverside March,
Elevation: 1535 ft
Nearby Weather Stations

Elev 1535 ft 33.90 °N, 117.25 °W | Updated 1 hour ago

Clear
Clear
92 °F
Feels Like 92 °F
N
4
Wind Variable Wind from NNE

Today
High -- | Low -- °F
--% Chance of Precip.
Yesterday
High -- | Low -- °F
Precip. -- in
6:19 AM 7:15 PM
Waxing Crescent, 24% visible
Pressure 29.82 in
Visibility 10.0 miles
Clouds Clear
Dew Point 38 °F
Humidity 15%
Rainfall 0.00 in
Snow Depth Not available.
UV 10 out of 12
Pollen 8.10 out of 12
Air Quality Not available.
Flu Activity Not available.
METAR KRIV 301858Z AUTO 02003KT 10SM CLR 34/04 A2986 RMK AO2 SLP096 T03360035

More Conditions Fewer Conditions

Pressure 29.82 in
Visibility 10.0 miles
Clouds Clear
Dew Point 38 °F
Humidity 15%
Rainfall 0.00 in
Snow Depth Not available.
UV 10 out of 12
Pollen 8.10 out of 12
Air Quality Not available.
Flu Activity Not available.
METAR KRIV 301858Z AUTO 02003KT 10SM CLR 34/04 A2986 RMK AO2 SLP096 T03360035

More Conditions Fewer Conditions

10-Day Weather Forecast

Almanac

Astronomy

Aug. 30, 2014 Rise Set
Actual Time 6:19 AM PDT 7:15 PM PDT
Civil Twilight 5:54 AM PDT 7:41 PM PDT
Nautical Twilight 5:23 AM PDT 8:11 PM PDT
Astronomical Twilight 4:52 AM PDT 8:42 PM PDT
Moon 10:56 AM PDT 10:08 PM PDT
Length of Visible Light 13h 47m
Length of Day
12h 55m
Tomorrow will be 2m 0s shorter.
Waxing Crescent, 24% of the Moon is Illuminated
Today
Waxing Crescent
Sep 2
First Quarter
Sep 8
Full
Sep 15
Last Quarter
Sep 24
New

Today's Extremes

State Highs State Lows

Community

WunderPhotos

Upload Photos

1,748,622 photos uploaded!

WunderBlogs® & News

Nearby

Air Quality

  Air Quality AQ Index Pollutant
Yesterday Moderate
OZONE
Yesterday Good
PM2.5
Sunday Unhealthy for Sensitive Groups
OZONE
Sunday Good
PM10
Sunday Good
CO
Sunday Good
NO2

Snow Depth

Station Depth Elevation
Leavitt Meadows 1 in 7200 ft
Summit Meadow 0 in 9122 ft
Monitor Pass 0 in 8350 ft
Rubicon #2 0 in 7500 ft
CSS Lab 2 in 6900 ft

Earthquake Activity

City Distance Mag. Time & Date
No recent earthquake activity has been reported nearby.
Minimum magnitude displayed is 2.5.

Coastal Water Temperatures

Place Temperature
No Stations Reporting

Nearby Weather Stations